createdAt,value
2018-09-09T15:03:07.435Z,91.5
2018-09-09T15:04:07.583Z,91.7
2018-09-09T15:05:07.508Z,91.3
2018-09-09T15:06:08.171Z,91.2
2018-09-09T15:07:08.090Z,91.1
2018-09-09T15:08:09.558Z,91.3
2018-09-09T15:09:09.454Z,91.3
2018-09-09T15:10:09.602Z,91.2
2018-09-09T15:11:09.786Z,91.3
2018-09-09T15:12:10.799Z,91.4
2018-09-09T15:13:10.729Z,91.2
2018-09-09T15:14:12.201Z,91.3
2018-09-09T15:15:15.028Z,91.5
2018-09-09T15:16:15.177Z,91.6
2018-09-09T15:17:16.086Z,91.4
2018-09-09T15:18:15.997Z,91.4
2018-09-09T15:19:16.179Z,91.5
2018-09-09T15:20:16.116Z,92
2018-09-09T15:21:16.067Z,91.7
2018-09-09T15:22:17.987Z,91.8
2018-09-09T15:23:17.923Z,91.9
2018-09-09T15:24:17.846Z,91.9
2018-09-09T15:25:17.984Z,91.8
2018-09-09T15:26:17.926Z,91.9
2018-09-09T15:27:18.508Z,91.9
2018-09-09T15:28:18.454Z,91.8
2018-09-09T15:29:18.353Z,91.8
2018-09-09T15:30:18.508Z,91.9
2018-09-09T15:31:18.450Z,91.8
2018-09-09T15:32:19.496Z,91.9
2018-09-09T15:33:19.639Z,91.9
2018-09-09T15:34:20.024Z,91.8
2018-09-09T15:35:20.499Z,92
2018-09-09T15:36:20.451Z,91.5
2018-09-09T15:37:20.378Z,91.6
2018-09-09T15:38:20.527Z,91.6
2018-09-09T15:39:20.447Z,91.6
2018-09-09T15:40:20.599Z,91.6
2018-09-09T15:41:20.532Z,91.8
2018-09-09T15:42:21.152Z,91.9
2018-09-09T15:43:21.073Z,92
2018-09-09T15:44:20.981Z,92.2
2018-09-09T15:45:21.097Z,92.2
2018-09-09T15:46:21.208Z,91.9
2018-09-09T15:47:21.145Z,92
2018-09-09T15:48:21.139Z,91.9
2018-09-09T15:49:21.081Z,91.9
2018-09-09T15:50:21.010Z,92
2018-09-09T15:51:21.962Z,92.1
2018-09-09T15:52:24.130Z,92.1
2018-09-09T15:53:26.833Z,92.1
2018-09-09T15:54:26.770Z,91.9
2018-09-09T15:55:28.253Z,91.9
2018-09-09T15:56:28.192Z,91.9
2018-09-09T15:57:28.136Z,91.9
2018-09-09T15:58:30.618Z,92
2018-09-09T15:59:30.534Z,91.9
2018-09-09T16:00:31.501Z,91.9
2018-09-09T16:01:31.685Z,91.8
2018-09-09T16:02:32.290Z,91.9
2018-09-09T16:03:32.451Z,91.8
2018-09-09T16:04:32.397Z,91.8
2018-09-09T16:05:32.324Z,91.8
2018-09-09T16:06:32.257Z,91.8
2018-09-09T16:07:33.190Z,91.7
2018-09-09T16:08:33.169Z,91.7
2018-09-09T16:09:33.090Z,91.8
2018-09-09T16:10:33.016Z,91.7
2018-09-09T16:11:32.964Z,91.6
2018-09-09T16:12:33.348Z,91.6
2018-09-09T16:13:33.275Z,91.6
2018-09-09T16:14:33.194Z,91.7
2018-09-09T16:15:33.109Z,91.7
2018-09-09T16:16:33.007Z,91.7
2018-09-09T16:17:33.220Z,91.7
2018-09-09T16:18:33.271Z,91.7
2018-09-09T16:19:33.450Z,91.8
2018-09-09T16:20:33.361Z,91.7
2018-09-09T16:21:33.512Z,91.8
2018-09-09T16:22:34.559Z,91.8
2018-09-09T16:23:34.952Z,91.8
2018-09-09T16:24:35.368Z,91.8
2018-09-09T16:25:35.530Z,91.7
2018-09-09T16:26:35.666Z,92
2018-09-09T16:27:35.792Z,91.7
2018-09-09T16:28:35.930Z,91.8
2018-09-09T16:29:35.866Z,91.8
2018-09-09T16:30:35.864Z,91.8
2018-09-09T16:31:37.394Z,91.9
2018-09-09T16:32:38.441Z,91.9
2018-09-09T16:33:38.370Z,92
2018-09-09T16:34:38.736Z,91.9
2018-09-09T16:35:38.662Z,91.9
2018-09-09T16:36:38.788Z,91.8
2018-09-09T16:37:41.486Z,91.9
2018-09-09T16:38:41.421Z,92
2018-09-09T16:39:41.916Z,92
2018-09-09T16:40:41.967Z,92
2018-09-09T16:41:42.101Z,92
2018-09-09T16:42:46.485Z,92
2018-09-09T16:43:46.450Z,92
2018-09-09T16:44:46.363Z,92
2018-09-09T16:45:50.502Z,92.1
2018-09-09T16:46:50.816Z,92
2018-09-09T16:47:51.417Z,92.1
2018-09-09T16:48:51.375Z,92.3
2018-09-09T16:49:51.499Z,92.1
2018-09-09T16:50:54.468Z,92.2
2018-09-09T16:51:54.384Z,92.2
2018-09-09T16:52:55.420Z,92.3
2018-09-09T16:53:56.034Z,92.3
2018-09-09T16:54:55.947Z,92.4
2018-09-09T16:55:55.916Z,92.5
2018-09-09T16:56:56.503Z,92.4
2018-09-09T16:57:56.422Z,92.5
2018-09-09T16:58:56.370Z,92.5
2018-09-09T16:59:56.306Z,92.6
2018-09-09T17:00:56.238Z,92.7
2018-09-09T17:01:56.404Z,92.9
2018-09-09T17:02:56.810Z,93.1
2018-09-09T17:03:56.717Z,93.1
2018-09-09T17:04:56.671Z,93.2
2018-09-09T17:05:56.590Z,93.1
2018-09-09T17:06:57.166Z,93.3
2018-09-09T17:07:57.081Z,93.2
2018-09-09T17:08:57.032Z,93.3
2018-09-09T17:09:56.948Z,93.8
2018-09-09T17:10:56.889Z,94.1
2018-09-09T17:11:56.811Z,94.5
2018-09-09T17:12:57.435Z,94.2
2018-09-09T17:13:57.453Z,93.9
2018-09-09T17:14:57.405Z,93.7
2018-09-09T17:15:57.333Z,93.6
2018-09-09T17:16:59.933Z,93.3
2018-09-09T17:17:59.874Z,93.5
2018-09-09T17:18:59.802Z,93.4
2018-09-09T17:19:59.720Z,93.5
2018-09-09T17:20:59.658Z,93.6
2018-09-09T17:21:59.580Z,94.1
2018-09-09T17:23:01.179Z,94
2018-09-09T17:24:01.126Z,93.8
2018-09-09T17:25:01.047Z,94.2
2018-09-09T17:26:00.964Z,94.7
2018-09-09T17:27:01.096Z,95.4
2018-09-09T17:28:01.473Z,95.5
2018-09-09T17:29:01.647Z,95.5
2018-09-09T17:30:01.606Z,95.7
2018-09-09T17:31:01.528Z,95.6
2018-09-09T17:32:01.845Z,95.6
2018-09-09T17:33:02.578Z,96
2018-09-09T17:34:02.533Z,96
2018-09-09T17:35:02.816Z,96
2018-09-09T17:36:02.783Z,96.1
2018-09-09T17:37:02.944Z,96.5
2018-09-09T17:38:02.846Z,96.3
2018-09-09T17:39:05.356Z,96.2
2018-09-09T17:40:05.304Z,96.6
2018-09-09T17:41:05.229Z,96.9
2018-09-09T17:42:05.169Z,96.6
2018-09-09T17:43:05.545Z,96.7
2018-09-09T17:44:05.466Z,96.8
2018-09-09T17:45:06.417Z,96.7
2018-09-09T17:46:06.329Z,96.4
2018-09-09T17:47:06.474Z,96.4
2018-09-09T17:48:06.399Z,96.2
2018-09-09T17:49:06.331Z,96.4
2018-09-09T17:50:06.242Z,96.3
2018-09-09T17:51:06.418Z,96.4
2018-09-09T17:52:06.337Z,96.7
2018-09-09T17:53:06.747Z,96.8
2018-09-09T17:54:06.729Z,96.9
2018-09-09T17:55:06.665Z,97
2018-09-09T17:56:06.640Z,96.9
2018-09-09T17:57:06.574Z,97.3
2018-09-09T17:58:06.510Z,97.2
2018-09-09T17:59:06.419Z,97.1
2018-09-09T18:00:07.338Z,97.4
2018-09-09T18:01:07.291Z,97.6
2018-09-09T18:02:07.219Z,97.8
2018-09-09T18:03:08.145Z,97.8
2018-09-09T18:04:08.076Z,97.6
2018-09-09T18:05:08.004Z,97.6
2018-09-09T18:06:07.918Z,98
2018-09-09T18:07:07.901Z,97.9
2018-09-09T18:08:08.249Z,97.8
2018-09-09T18:09:08.402Z,97.9
2018-09-09T18:10:08.513Z,97.9
2018-09-09T18:11:08.815Z,97.9
2018-09-09T18:12:08.855Z,98.1
2018-09-09T18:13:09.240Z,98
2018-09-09T18:14:09.343Z,98.2
2018-09-09T18:15:09.777Z,98.3
2018-09-09T18:16:09.728Z,98.7
2018-09-09T18:17:09.674Z,98.4
2018-09-09T18:18:09.594Z,98.2
2018-09-09T18:19:10.176Z,97.8
2018-09-09T18:20:10.229Z,97.9
2018-09-09T18:21:10.235Z,97.9
2018-09-09T18:22:10.192Z,98.2
2018-09-09T18:23:10.903Z,98.1
2018-09-09T18:24:10.830Z,98.2
2018-09-09T18:25:10.774Z,98.1
2018-09-09T18:26:10.726Z,98.2
2018-09-09T18:27:10.686Z,98.4
2018-09-09T18:28:10.628Z,98.4
2018-09-09T18:29:10.574Z,98.5
2018-09-09T18:30:13.630Z,98.5
2018-09-09T18:31:13.789Z,98.7
2018-09-09T18:32:13.793Z,98.9
2018-09-09T18:33:14.617Z,98.9
2018-09-09T18:34:14.582Z,98.8
2018-09-09T18:35:14.533Z,99.3
2018-09-09T18:36:14.511Z,99.4
2018-09-09T18:37:14.447Z,99.1
2018-09-09T18:38:14.443Z,99.1
2018-09-09T18:39:14.845Z,99.6
2018-09-09T18:40:14.843Z,99.7
2018-09-09T18:41:14.897Z,99.6
2018-09-09T18:42:14.839Z,99.4
2018-09-09T18:43:15.268Z,99.6
2018-09-09T18:44:15.218Z,99.6
2018-09-09T18:45:15.177Z,99.6
2018-09-09T18:46:15.143Z,99.8
2018-09-09T18:47:15.103Z,99.9
2018-09-09T18:48:15.066Z,99.7
2018-09-09T18:49:15.052Z,99.8
2018-09-09T18:50:15.043Z,99.9
2018-09-09T18:51:17.678Z,99.9
2018-09-09T18:52:17.627Z,99.9
2018-09-09T18:53:18.255Z,99.9
2018-09-09T18:54:18.185Z,99.9
2018-09-09T18:55:18.119Z,99.9
2018-09-09T18:56:18.278Z,99.9
2018-09-09T18:57:18.222Z,99.9
2018-09-09T18:58:18.156Z,99.9
2018-09-09T18:59:18.721Z,99.9
2018-09-09T19:00:19.894Z,99.9
2018-09-09T19:01:19.823Z,99.9
2018-09-09T19:02:20.474Z,99.9
2018-09-09T19:03:21.578Z,99.9
2018-09-09T19:04:21.501Z,99.9
2018-09-09T19:05:21.459Z,99.9
2018-09-09T19:06:22.100Z,99.9
2018-09-09T19:07:22.457Z,99.9
2018-09-09T19:08:22.406Z,99.9
2018-09-09T19:09:22.661Z,99.9
2018-09-09T19:10:22.645Z,99.9
2018-09-09T19:11:22.605Z,99.9
2018-09-09T19:12:22.593Z,99.9
2018-09-09T19:13:24.060Z,99.9
2018-09-09T19:14:24.027Z,99.9
2018-09-09T19:15:24.010Z,99.9
2018-09-09T19:16:24.263Z,99.9
2018-09-09T19:17:24.183Z,99.9
2018-09-09T19:18:24.116Z,99.9
2018-09-09T19:19:24.711Z,99.9
2018-09-09T19:20:24.677Z,99.9
2018-09-09T19:21:25.208Z,99.9
2018-09-09T19:22:25.557Z,99.9
2018-09-09T19:23:25.982Z,99.9
2018-09-09T19:24:26.357Z,99.9
2018-09-09T19:25:26.316Z,99.9
2018-09-09T19:26:26.227Z,99.9
2018-09-09T19:27:26.211Z,99.9
2018-09-09T19:28:26.133Z,99.9
2018-09-09T19:29:26.121Z,99.9
2018-09-09T19:30:26.051Z,99.9
2018-09-09T19:31:25.996Z,99.9
2018-09-09T19:32:25.920Z,99.9
2018-09-09T19:33:26.535Z,99.9
2018-09-09T19:34:26.475Z,99.9
2018-09-09T19:35:26.395Z,99.9
2018-09-09T19:36:26.587Z,99.9
2018-09-09T19:37:26.669Z,99.9
2018-09-09T19:38:26.626Z,99.9
2018-09-09T19:39:26.798Z,99.9
2018-09-09T19:40:26.727Z,99.9
2018-09-09T19:41:26.655Z,99.9
2018-09-09T19:42:26.567Z,99.9
2018-09-09T19:43:26.968Z,99.9
2018-09-09T19:44:27.128Z,99.9
2018-09-09T19:45:27.068Z,99.9
2018-09-09T19:46:27.208Z,99.9
2018-09-09T19:47:27.153Z,99.9
2018-09-09T19:48:27.081Z,99.9
2018-09-09T19:49:28.234Z,99.9
2018-09-09T19:50:28.168Z,99.9
2018-09-09T19:51:28.097Z,99.9
2018-09-09T19:52:28.245Z,99.9
2018-09-09T19:53:28.838Z,99.9
2018-09-09T19:54:29.006Z,99.9
2018-09-09T19:55:28.913Z,99.9
2018-09-09T19:56:31.806Z,99.9
2018-09-09T19:57:31.727Z,99.9
2018-09-09T19:58:31.657Z,99.9
2018-09-09T19:59:34.584Z,99.9
2018-09-09T20:00:34.494Z,99.9
2018-09-09T20:01:34.417Z,99.9
2018-09-09T20:02:34.338Z,99.9
2018-09-09T20:03:34.732Z,99.9
2018-09-09T20:04:37.430Z,99.9
2018-09-09T20:05:38.525Z,99.9
2018-09-09T20:06:38.440Z,99.9
2018-09-09T20:07:38.362Z,99.9
2018-09-09T20:08:38.301Z,99.9
2018-09-09T20:09:38.448Z,99.9
2018-09-09T20:10:38.355Z,99.9
2018-09-09T20:11:39.287Z,99.9
2018-09-09T20:12:39.203Z,99.9
2018-09-09T20:13:39.553Z,99.9
2018-09-09T20:14:40.551Z,99.9
2018-09-09T20:15:40.606Z,99.9
2018-09-09T20:16:40.846Z,99.9
2018-09-09T20:17:40.784Z,99.9
2018-09-09T20:18:41.689Z,99.9
2018-09-09T20:19:44.294Z,99.9
2018-09-09T20:20:44.437Z,99.9
2018-09-09T20:21:44.363Z,99.9
2018-09-09T20:22:44.293Z,99.9
2018-09-09T20:23:46.648Z,99.9
2018-09-09T20:24:47.675Z,99.9
2018-09-09T20:25:48.012Z,99.9
2018-09-09T20:26:48.445Z,99.9
2018-09-09T20:27:48.360Z,99.9
2018-09-09T20:28:48.494Z,99.9
2018-09-09T20:29:48.425Z,99.9
2018-09-09T20:30:48.359Z,99.9
2018-09-09T20:31:48.272Z,99.9
2018-09-09T20:32:48.423Z,99.9
2018-09-09T20:33:49.842Z,99.9
2018-09-09T20:34:49.775Z,99.9
2018-09-09T20:35:49.723Z,99.9
2018-09-09T20:36:49.639Z,99.9
2018-09-09T20:37:49.552Z,99.9
2018-09-09T20:38:49.857Z,99.9
2018-09-09T20:39:51.142Z,99.9
2018-09-09T20:40:51.100Z,99.9
2018-09-09T20:41:54.093Z,99.9
2018-09-09T20:42:54.012Z,99.9
2018-09-09T20:43:54.365Z,99.9
2018-09-09T20:44:54.305Z,99.9
2018-09-09T20:45:54.223Z,99.9
2018-09-09T20:46:54.358Z,99.9
2018-09-09T20:47:55.268Z,99.9
2018-09-09T20:48:55.406Z,99.9
2018-09-09T20:49:55.359Z,99.9
2018-09-09T20:50:55.267Z,99.9
2018-09-09T20:51:58.893Z,99.9
2018-09-09T20:52:58.806Z,99.9
2018-09-09T20:53:59.201Z,99.9
2018-09-09T20:55:09.338Z,99.9
2018-09-09T20:56:09.263Z,99.9
2018-09-09T20:57:12.283Z,99.9
2018-09-09T20:58:12.200Z,99.9
2018-09-09T20:59:12.348Z,99.9
2018-09-09T21:00:12.527Z,99.9
2018-09-09T21:01:12.610Z,99.9
2018-09-09T21:02:13.524Z,99.9
2018-09-09T21:03:13.451Z,99.9
2018-09-09T21:04:13.788Z,99.9
2018-09-09T21:05:13.725Z,99.9
2018-09-09T21:06:13.647Z,99.9
2018-09-09T21:07:16.144Z,99.9
2018-09-09T21:08:16.077Z,99.9
2018-09-09T21:09:16.055Z,99.9
2018-09-09T21:10:15.990Z,99.9
2018-09-09T21:11:15.907Z,99.9
2018-09-09T21:12:16.057Z,99.9
2018-09-09T21:13:16.651Z,99.9
2018-09-09T21:14:17.699Z,99.9
2018-09-09T21:15:17.639Z,99.9
2018-09-09T21:16:17.571Z,99.9
2018-09-09T21:17:17.721Z,99.9
2018-09-09T21:18:17.633Z,99.9
2018-09-09T21:19:17.561Z,99.9
2018-09-09T21:20:17.496Z,99.9
2018-09-09T21:21:17.645Z,99.9
2018-09-09T21:22:17.559Z,99.9
2018-09-09T21:23:17.466Z,99.9
2018-09-09T21:24:17.842Z,99.9
2018-09-09T21:25:17.758Z,99.9
2018-09-09T21:26:18.077Z,99.9
2018-09-09T21:27:18.256Z,99.9
2018-09-09T21:28:18.166Z,99.9
2018-09-09T21:29:18.304Z,99.9
2018-09-09T21:30:18.228Z,99.9
2018-09-09T21:31:18.415Z,99.9
2018-09-09T21:32:18.369Z,99.9
2018-09-09T21:33:20.915Z,99.9
2018-09-09T21:34:21.744Z,99.9
2018-09-09T21:35:21.653Z,99.9
2018-09-09T21:36:21.819Z,99.9
2018-09-09T21:37:21.740Z,99.9
2018-09-09T21:38:21.901Z,99.9
2018-09-09T21:39:21.797Z,99.9
2018-09-09T21:40:21.796Z,99.9
2018-09-09T21:41:22.963Z,99.9
2018-09-09T21:42:22.929Z,99.9
2018-09-09T21:43:23.935Z,99.9
2018-09-09T21:44:24.513Z,99.9
2018-09-09T21:45:24.415Z,99.9
2018-09-09T21:46:25.381Z,99.9
2018-09-09T21:47:25.303Z,99.9
2018-09-09T21:48:34.603Z,99.9
2018-09-09T21:49:34.516Z,99.9
2018-09-09T21:50:38.355Z,99.9
2018-09-09T21:51:38.286Z,99.9
2018-09-09T21:52:38.211Z,99.9
2018-09-09T21:53:39.165Z,99.9
2018-09-09T21:54:43.481Z,99.9
2018-09-09T21:55:43.408Z,99.9
2018-09-09T21:56:43.359Z,99.9
2018-09-09T21:57:43.260Z,99.9
2018-09-09T21:58:48.803Z,99.9
2018-09-09T21:59:51.760Z,99.9
2018-09-09T22:00:51.679Z,99.9
2018-09-09T22:01:52.609Z,99.9
2018-09-09T22:02:52.526Z,99.9
2018-09-09T22:03:52.451Z,99.9
2018-09-09T22:04:59.387Z,99.9
2018-09-09T22:05:59.529Z,99.9
2018-09-09T22:07:00.128Z,99.9
2018-09-09T22:08:00.043Z,99.9
2018-09-09T22:09:03.717Z,99.9
2018-09-09T22:10:03.858Z,99.9
2018-09-09T22:11:03.767Z,99.9
2018-09-09T22:12:08.558Z,99.9
2018-09-09T22:13:08.462Z,99.9
2018-09-09T22:14:08.387Z,99.9
2018-09-09T22:15:11.608Z,99.9
2018-09-09T22:16:11.585Z,99.9
2018-09-09T22:17:14.353Z,99.9
2018-09-09T22:18:20.990Z,99.9
2018-09-09T22:19:20.897Z,99.9
2018-09-09T22:20:21.048Z,99.9
2018-09-09T22:21:21.181Z,99.9
2018-09-09T22:22:21.117Z,99.9
2018-09-09T22:23:21.024Z,99.9
2018-09-09T22:24:23.970Z,99.9
2018-09-09T22:25:24.549Z,99.9
2018-09-09T22:26:29.345Z,99.9
2018-09-09T22:27:29.288Z,99.9
2018-09-09T22:28:35.891Z,99.9
2018-09-09T22:29:35.807Z,99.9
2018-09-09T22:30:38.868Z,99.9
2018-09-09T22:31:38.834Z,99.9
2018-09-09T22:32:39.242Z,99.9
2018-09-09T22:33:39.157Z,99.9
2018-09-09T22:34:48.854Z,99.9
2018-09-09T22:35:49.207Z,99.9
2018-09-09T22:36:50.124Z,99.9
2018-09-09T22:37:53.957Z,99.9
2018-09-09T22:38:54.540Z,99.9
2018-09-09T22:39:54.456Z,99.9
2018-09-09T22:40:58.170Z,99.9
2018-09-09T22:41:58.084Z,99.9
2018-09-09T22:43:00.950Z,99.9
2018-09-09T22:44:01.084Z,99.9
2018-09-09T22:45:02.025Z,99.9
2018-09-09T22:46:02.475Z,99.9
2018-09-09T22:47:04.413Z,99.9
2018-09-09T22:48:04.348Z,99.9
2018-09-09T22:49:04.495Z,99.9
2018-09-09T22:50:04.431Z,99.9
2018-09-09T22:51:08.251Z,99.9
2018-09-09T22:52:08.168Z,99.9
2018-09-09T22:53:09.334Z,99.9
2018-09-09T22:54:09.254Z,99.9
2018-09-09T22:55:12.341Z,99.9
2018-09-09T22:56:12.905Z,99.9
2018-09-09T22:57:12.931Z,99.9
2018-09-09T22:58:12.868Z,99.9
2018-09-09T22:59:13.030Z,99.9
2018-09-09T23:00:13.405Z,99.9
2018-09-09T23:01:13.320Z,99.9
2018-09-09T23:02:13.239Z,99.9
2018-09-09T23:03:13.157Z,99.9
2018-09-09T23:04:13.074Z,99.9
2018-09-09T23:05:17.045Z,99.9
2018-09-09T23:06:20.964Z,99.9
2018-09-09T23:07:20.893Z,99.9
2018-09-09T23:08:20.807Z,99.9
2018-09-09T23:09:21.182Z,99.9
2018-09-09T23:10:21.096Z,99.9
2018-09-09T23:11:21.676Z,99.9
2018-09-09T23:12:21.591Z,99.9
2018-09-09T23:13:22.724Z,99.9
2018-09-09T23:14:22.657Z,99.9
2018-09-09T23:15:22.797Z,99.9
2018-09-09T23:16:23.129Z,99.9
2018-09-09T23:17:23.032Z,99.9
2018-09-09T23:18:23.169Z,99.9
2018-09-09T23:19:25.958Z,99.9
2018-09-09T23:20:32.203Z,99.9
2018-09-09T23:21:32.124Z,99.9
2018-09-09T23:22:32.018Z,99.9
2018-09-09T23:23:31.945Z,99.9
2018-09-09T23:24:32.341Z,99.9
2018-09-09T23:25:32.270Z,99.9
2018-09-09T23:26:35.453Z,99.9
2018-09-09T23:27:35.633Z,99.9
2018-09-09T23:28:35.565Z,99.9
2018-09-09T23:29:35.646Z,99.9
2018-09-09T23:30:38.093Z,99.9
2018-09-09T23:31:39.002Z,99.9
2018-09-09T23:32:39.150Z,99.9
2018-09-09T23:33:39.064Z,99.9
2018-09-09T23:34:39.232Z,99.9
2018-09-09T23:35:39.148Z,99.9
2018-09-09T23:36:44.918Z,99.9
2018-09-09T23:37:44.829Z,99.9
2018-09-09T23:38:48.316Z,99.9
2018-09-09T23:39:52.291Z,99.9
2018-09-09T23:40:52.172Z,99.9
2018-09-09T23:41:52.298Z,99.9
2018-09-09T23:42:52.209Z,99.9
2018-09-09T23:43:54.936Z,99.9
2018-09-09T23:44:54.880Z,99.9
2018-09-09T23:45:57.775Z,99.9
2018-09-09T23:46:58.353Z,99.9
2018-09-09T23:47:58.267Z,99.9
2018-09-09T23:48:59.185Z,99.9
2018-09-09T23:49:59.098Z,99.9
2018-09-09T23:51:08.230Z,99.9
2018-09-09T23:52:08.145Z,99.9
2018-09-09T23:53:09.283Z,99.9
2018-09-09T23:54:09.187Z,99.9
2018-09-09T23:55:09.346Z,99.9
2018-09-09T23:56:09.249Z,99.9
2018-09-09T23:57:13.737Z,99.9
2018-09-09T23:58:15.641Z,99.9
2018-09-09T23:59:15.551Z,99.9
